createdAt,value
2023-04-08T00:00:48.142Z,1.60
2023-04-08T00:03:16.331Z,1.77
2023-04-08T00:05:46.047Z,1.63
2023-04-08T00:08:14.585Z,1.88
2023-04-08T00:10:42.770Z,1.13
2023-04-08T00:13:10.838Z,1.63
2023-04-08T00:15:38.995Z,1.90
2023-04-08T00:18:07.999Z,1.50
2023-04-08T00:20:36.093Z,1.83
2023-04-08T00:23:05.701Z,2.25
2023-04-08T00:25:33.896Z,2.00
2023-04-08T00:28:02.067Z,2.17
2023-04-08T00:30:30.099Z,1.92
2023-04-08T00:32:58.299Z,2.15
2023-04-08T00:35:26.744Z,1.67
2023-04-08T00:37:54.922Z,2.13
2023-04-08T00:40:24.318Z,2.25
2023-04-08T00:42:52.297Z,2.33
2023-04-08T00:45:20.420Z,2.17
2023-04-08T00:47:52.566Z,2.22
2023-04-08T00:50:21.394Z,1.70
2023-04-08T00:55:17.528Z,1.70
2023-04-08T00:57:47.301Z,1.73
2023-04-08T01:00:16.883Z,2.05
2023-04-08T01:02:52.784Z,2.17
2023-04-08T01:05:29.828Z,1.67
2023-04-08T01:08:01.005Z,2.22
2023-04-08T01:10:32.583Z,1.55
2023-04-08T01:13:08.392Z,1.88
2023-04-08T01:15:39.107Z,1.98
2023-04-08T01:18:08.498Z,1.83
2023-04-08T01:20:36.836Z,2.53
2023-04-08T01:25:39.875Z,2.17
2023-04-08T01:28:13.298Z,2.15
2023-04-08T01:30:43.037Z,1.73
2023-04-08T01:33:14.639Z,2.00
2023-04-08T01:35:43.093Z,1.75
2023-04-08T01:40:42.194Z,1.45
2023-04-08T01:43:14.474Z,2.15
2023-04-08T01:45:43.568Z,2.00
2023-04-08T01:48:14.386Z,1.80
2023-04-08T01:50:44.380Z,1.50
2023-04-08T01:53:14.962Z,1.58
2023-04-08T01:55:44.479Z,1.80
2023-04-08T01:58:21.281Z,2.05
2023-04-08T02:03:20.135Z,1.58
2023-04-08T02:05:48.540Z,1.50
2023-04-08T02:08:16.576Z,1.52
2023-04-08T02:10:44.537Z,2.20
2023-04-08T02:13:12.785Z,2.03
2023-04-08T02:15:47.527Z,1.80
2023-04-08T02:18:18.365Z,1.90
2023-04-08T02:20:54.912Z,1.85
2023-04-08T02:23:25.545Z,1.98
2023-04-08T02:25:57.865Z,1.80
2023-04-08T02:28:30.148Z,2.22
2023-04-08T02:31:01.877Z,2.33
2023-04-08T02:33:30.332Z,1.80
2023-04-08T02:35:59.597Z,1.98
2023-04-08T02:38:29.872Z,1.83
2023-04-08T02:40:58.985Z,2.03
2023-04-08T02:43:32.170Z,2.35
2023-04-08T02:46:03.814Z,2.10
2023-04-08T02:48:32.295Z,2.20
2023-04-08T02:51:00.314Z,2.42
2023-04-08T02:53:28.501Z,1.77
2023-04-08T02:55:56.502Z,2.55
2023-04-08T02:58:24.544Z,2.67
2023-04-08T03:00:53.016Z,2.30
2023-04-08T03:05:56.111Z,2.42
2023-04-08T03:10:52.258Z,2.17
2023-04-08T03:13:20.369Z,2.75
2023-04-08T03:15:48.584Z,2.20
2023-04-08T03:18:16.652Z,2.55
2023-04-08T03:20:46.116Z,2.53
2023-04-08T03:23:14.118Z,2.63
2023-04-08T03:25:42.049Z,2.72
2023-04-08T03:28:10.051Z,2.55
2023-04-08T03:30:38.117Z,2.35
2023-04-08T03:33:08.145Z,2.30
2023-04-08T03:35:37.485Z,2.25
2023-04-08T03:38:07.090Z,2.42
2023-04-08T03:40:35.399Z,2.88
2023-04-08T03:43:03.397Z,2.65
2023-04-08T03:45:31.418Z,2.58
2023-04-08T03:47:59.343Z,2.38
2023-04-08T03:50:27.380Z,2.53
2023-04-08T03:52:55.504Z,2.50
2023-04-08T03:55:25.357Z,2.65
2023-04-08T03:57:53.302Z,2.63
2023-04-08T04:00:21.300Z,2.33
2023-04-08T04:02:49.310Z,2.35
2023-04-08T04:05:17.584Z,2.55
2023-04-08T04:07:45.700Z,2.25
2023-04-08T04:10:14.352Z,2.47
2023-04-08T04:12:44.708Z,2.38
2023-04-08T04:15:13.331Z,2.33
2023-04-08T04:20:10.305Z,2.17
2023-04-08T04:22:38.382Z,2.65
2023-04-08T04:25:07.548Z,2.33
2023-04-08T04:27:36.715Z,2.55
2023-04-08T04:30:07.350Z,2.50
2023-04-08T04:32:35.430Z,2.63
2023-04-08T04:35:03.418Z,2.50
2023-04-08T04:37:31.660Z,2.30
2023-04-08T04:39:59.762Z,2.13
2023-04-08T04:42:27.856Z,2.22
2023-04-08T04:44:55.758Z,2.22
2023-04-08T04:47:25.267Z,2.47
2023-04-08T04:49:53.370Z,2.17
2023-04-08T04:52:21.505Z,2.80
2023-04-08T04:54:49.516Z,2.78
2023-04-08T04:57:17.561Z,2.38
2023-04-08T04:59:45.545Z,2.58
2023-04-08T05:02:13.731Z,2.08
2023-04-08T05:04:43.478Z,2.22
2023-04-08T05:07:11.667Z,2.22
2023-04-08T05:09:39.691Z,2.22
2023-04-08T05:12:07.662Z,2.25
2023-04-08T05:14:35.800Z,2.30
2023-04-08T05:17:05.881Z,1.98
2023-04-08T05:19:34.065Z,2.33
2023-04-08T05:22:03.453Z,2.40
2023-04-08T05:24:31.630Z,2.08
2023-04-08T05:26:59.676Z,2.28
2023-04-08T05:29:27.683Z,1.75
2023-04-08T05:31:56.475Z,2.17
2023-04-08T05:34:24.511Z,1.92
2023-04-08T05:36:52.905Z,2.17
2023-04-08T05:39:22.295Z,2.13
2023-04-08T05:41:50.491Z,1.95
2023-04-08T05:44:18.807Z,2.22
2023-04-08T05:49:15.734Z,1.55
2023-04-08T05:51:43.938Z,2.00
2023-04-08T05:54:12.031Z,2.00
2023-04-08T05:56:41.613Z,2.03
2023-04-08T05:59:09.726Z,2.30
2023-04-08T06:01:37.925Z,2.13
2023-04-08T06:04:06.317Z,2.15
2023-04-08T06:06:34.622Z,2.03
2023-04-08T06:09:02.601Z,2.40
2023-04-08T06:11:30.834Z,2.20
2023-04-08T06:14:00.343Z,2.45
2023-04-08T06:16:28.350Z,2.22
2023-04-08T06:18:56.500Z,2.13
2023-04-08T06:21:24.508Z,2.40
2023-04-08T06:23:52.679Z,2.45
2023-04-08T06:26:20.845Z,2.53
2023-04-08T06:28:48.959Z,2.58
2023-04-08T06:31:19.075Z,2.65
2023-04-08T06:33:47.230Z,2.35
2023-04-08T06:36:15.597Z,2.50
2023-04-08T06:38:43.631Z,2.45
2023-04-08T06:41:11.736Z,2.35
2023-04-08T06:43:39.903Z,2.45
2023-04-08T06:46:08.045Z,2.53
2023-04-08T06:48:37.817Z,2.55
2023-04-08T06:51:07.732Z,2.17
2023-04-08T06:53:35.766Z,2.45
2023-04-08T06:56:03.882Z,2.22
2023-04-08T06:58:31.883Z,2.60
2023-04-08T07:01:01.184Z,2.70
2023-04-08T07:03:29.278Z,2.35
2023-04-08T07:05:58.783Z,2.55
2023-04-08T07:08:27.274Z,2.67
2023-04-08T07:10:55.342Z,2.72
2023-04-08T07:13:23.700Z,2.50
2023-04-08T07:15:51.780Z,2.40
2023-04-08T07:18:21.462Z,2.58
2023-04-08T07:20:53.085Z,2.33
2023-04-08T07:23:23.062Z,2.10
2023-04-08T07:25:51.671Z,1.80
2023-04-08T07:28:19.858Z,2.15
2023-04-08T07:30:48.110Z,2.35
2023-04-08T07:35:44.196Z,2.03
2023-04-08T07:38:13.487Z,2.08
2023-04-08T07:40:43.090Z,2.03
2023-04-08T07:43:11.016Z,1.95
2023-04-08T07:45:39.018Z,1.85
2023-04-08T07:48:07.773Z,2.03
2023-04-08T07:51:08.960Z,2.10
2023-04-08T07:53:26.802Z,1.95
2023-04-08T07:55:56.222Z,2.28
2023-04-08T07:58:25.304Z,2.58
2023-04-08T08:00:53.632Z,2.20
2023-04-08T08:03:22.122Z,2.20
2023-04-08T08:05:50.368Z,1.80
2023-04-08T08:08:18.473Z,1.83
2023-04-08T08:10:46.467Z,1.83
2023-04-08T08:13:17.403Z,1.75
2023-04-08T08:15:45.514Z,1.83
2023-04-08T08:18:13.406Z,1.65
2023-04-08T08:20:41.433Z,1.98
2023-04-08T08:23:09.503Z,2.00
2023-04-08T08:25:37.757Z,1.77
2023-04-08T08:28:06.464Z,1.98
2023-04-08T08:30:35.856Z,2.30
2023-04-08T08:33:04.065Z,1.70
2023-04-08T08:35:32.311Z,1.75
2023-04-08T08:38:01.239Z,1.77
2023-04-08T08:40:29.336Z,1.15
2023-04-08T08:42:59.176Z,1.50
2023-04-08T08:45:27.394Z,1.88
2023-04-08T08:47:57.536Z,1.63
2023-04-08T08:50:26.206Z,1.23
2023-04-08T08:52:54.542Z,1.02
2023-04-08T08:57:53.887Z,1.48
2023-04-08T09:00:34.483Z,1.20
2023-04-08T09:03:27.401Z,1.30
2023-04-08T09:05:57.881Z,2.00
2023-04-08T09:08:32.027Z,1.70
2023-04-08T09:11:13.376Z,1.60
2023-04-08T09:13:41.945Z,1.77
2023-04-08T09:16:11.698Z,1.48
2023-04-08T09:18:44.571Z,1.02
2023-04-08T09:21:13.895Z,1.52
2023-04-08T09:23:43.996Z,1.77
2023-04-08T09:26:13.602Z,1.75
2023-04-08T09:28:43.182Z,1.67
2023-04-08T09:31:21.211Z,2.10
2023-04-08T09:33:51.490Z,1.58
2023-04-08T09:36:20.113Z,2.15
2023-04-08T09:38:48.283Z,1.50
2023-04-08T09:43:50.854Z,1.75
2023-04-08T09:46:21.004Z,2.20
2023-04-08T09:48:59.653Z,1.67
2023-04-08T09:51:33.466Z,2.13
2023-04-08T09:54:04.338Z,2.22
2023-04-08T09:56:40.900Z,2.22
2023-04-08T09:59:13.386Z,2.33
2023-04-08T10:01:47.557Z,2.78
2023-04-08T10:04:21.062Z,2.78
2023-04-08T10:07:02.186Z,2.97
2023-04-08T10:09:31.031Z,2.53
2023-04-08T10:11:59.246Z,2.67
2023-04-08T10:14:28.712Z,2.35
2023-04-08T10:17:25.542Z,2.75
2023-04-08T10:19:55.620Z,2.60
2023-04-08T10:22:49.273Z,2.40
2023-04-08T10:25:34.498Z,2.88
2023-04-08T10:28:03.709Z,2.72
2023-04-08T10:30:41.200Z,2.55
2023-04-08T10:33:12.293Z,2.53
2023-04-08T10:35:44.325Z,2.17
2023-04-08T10:38:13.357Z,2.40
2023-04-08T10:40:42.829Z,3.25
2023-04-08T10:43:11.877Z,2.63
2023-04-08T10:45:40.011Z,2.55
2023-04-08T10:48:19.203Z,2.75
2023-04-08T10:50:55.930Z,2.35
2023-04-08T10:53:28.470Z,2.45
2023-04-08T10:56:04.290Z,2.83
2023-04-08T10:58:32.440Z,3.05
2023-04-08T11:01:05.890Z,2.25
2023-04-08T11:03:35.098Z,2.85
2023-04-08T11:06:04.994Z,3.05
2023-04-08T11:08:33.611Z,3.17
2023-04-08T11:11:02.703Z,2.85
2023-04-08T11:13:31.798Z,3.05
2023-04-08T11:16:01.194Z,2.83
2023-04-08T11:18:29.695Z,3.00
2023-04-08T11:21:00.233Z,3.25
2023-04-08T11:23:30.618Z,3.35
2023-04-08T11:25:59.150Z,3.60
2023-04-08T11:28:27.519Z,2.83
2023-04-08T11:33:27.110Z,3.20
2023-04-08T11:35:55.547Z,3.25
2023-04-08T11:38:24.872Z,3.80
2023-04-08T11:40:58.857Z,3.30
2023-04-08T11:43:27.444Z,2.88
2023-04-08T11:45:55.620Z,3.45
2023-04-08T11:48:23.879Z,3.33
2023-04-08T11:51:04.621Z,3.45
2023-04-08T11:53:33.216Z,3.17
2023-04-08T11:56:21.323Z,3.90
2023-04-08T11:58:49.578Z,3.25
2023-04-08T12:01:17.924Z,3.38
2023-04-08T12:03:59.709Z,3.67
2023-04-08T12:06:28.702Z,3.05
2023-04-08T12:08:58.085Z,3.63
2023-04-08T12:11:27.548Z,3.92
2023-04-08T12:13:55.719Z,4.55
2023-04-08T12:16:23.903Z,4.38
2023-04-08T12:21:20.079Z,4.45
2023-04-08T12:23:48.392Z,4.47
2023-04-08T12:26:16.650Z,4.57
2023-04-08T12:28:46.049Z,4.07
2023-04-08T12:31:14.334Z,4.07
2023-04-08T12:33:42.616Z,4.28
2023-04-08T12:36:13.421Z,4.93
2023-04-08T12:38:41.710Z,4.53
2023-04-08T12:41:09.773Z,5.40
2023-04-08T12:46:08.672Z,5.47
2023-04-08T12:48:36.895Z,5.78
2023-04-08T12:51:05.393Z,5.30
2023-04-08T12:53:33.494Z,5.75
2023-04-08T12:56:01.719Z,5.38
2023-04-08T12:58:29.981Z,5.32
2023-04-08T13:03:30.573Z,5.95
2023-04-08T13:05:59.135Z,7.30
2023-04-08T13:08:27.231Z,7.22
2023-04-08T13:10:55.592Z,7.10
2023-04-08T13:15:52.304Z,7.82
2023-04-08T13:18:20.395Z,8.10
2023-04-08T13:20:49.862Z,7.13
2023-04-08T13:23:18.626Z,8.02
2023-04-08T13:25:46.746Z,8.52
2023-04-08T13:28:15.028Z,8.15
2023-04-08T13:30:43.630Z,8.10
2023-04-08T13:33:11.717Z,8.60
2023-04-08T13:35:39.837Z,8.75
2023-04-08T13:38:09.294Z,8.50
2023-04-08T13:40:37.475Z,8.60
2023-04-08T13:43:05.670Z,9.32
2023-04-08T13:45:33.906Z,9.98
2023-04-08T13:50:29.770Z,9.07
2023-04-08T13:52:58.133Z,11.10
2023-04-08T13:55:27.752Z,9.20
2023-04-08T13:57:56.212Z,9.88
2023-04-08T14:00:25.589Z,9.75
2023-04-08T14:02:53.755Z,9.60
2023-04-08T14:07:49.674Z,10.25
2023-04-08T14:10:17.803Z,10.52
2023-04-08T14:12:47.776Z,10.18
2023-04-08T14:15:16.023Z,9.85
2023-04-08T14:20:12.325Z,9.68
2023-04-08T14:22:40.434Z,10.20
2023-04-08T14:25:09.157Z,10.07
2023-04-08T14:27:47.517Z,10.48
2023-04-08T14:30:24.533Z,11.00
2023-04-08T14:32:52.779Z,10.25
2023-04-08T14:35:21.508Z,9.32
2023-04-08T14:37:49.792Z,10.25
2023-04-08T14:42:46.028Z,9.75
2023-04-08T14:45:14.134Z,10.30
2023-04-08T14:47:43.718Z,9.50
2023-04-08T14:50:12.403Z,11.85
2023-04-08T14:52:40.675Z,10.18
2023-04-08T14:55:09.309Z,9.90
2023-04-08T14:57:37.701Z,10.95
2023-04-08T15:00:07.602Z,11.20
2023-04-08T15:02:35.962Z,10.82
2023-04-08T15:05:05.948Z,10.73
2023-04-08T15:07:33.941Z,10.45
2023-04-08T15:10:02.300Z,11.70
2023-04-08T15:14:58.634Z,10.25
2023-04-08T15:17:26.961Z,9.77
2023-04-08T15:19:55.395Z,9.65
2023-04-08T15:22:25.086Z,9.10
2023-04-08T15:24:53.306Z,9.77
2023-04-08T15:27:21.561Z,8.48
2023-04-08T15:29:49.642Z,10.35
2023-04-08T15:32:17.732Z,9.45
2023-04-08T15:37:13.459Z,8.80
2023-04-08T15:39:43.044Z,8.50
2023-04-08T15:42:11.315Z,8.32
2023-04-08T15:44:39.220Z,8.27
2023-04-08T15:49:36.269Z,9.00
2023-04-08T15:52:04.447Z,8.77
2023-04-08T15:54:32.574Z,10.00
2023-04-08T15:59:30.840Z,10.27
2023-04-08T16:01:59.569Z,8.52
2023-04-08T16:04:27.985Z,8.38
2023-04-08T16:06:56.192Z,7.82
2023-04-08T16:09:26.708Z,7.72
2023-04-08T16:11:54.900Z,7.53
2023-04-08T16:14:24.423Z,7.95
2023-04-08T16:16:52.387Z,8.52
2023-04-08T16:19:22.205Z,9.02
2023-04-08T16:21:50.370Z,8.98
2023-04-08T16:24:20.777Z,8.88
2023-04-08T16:26:48.795Z,9.07
2023-04-08T16:29:17.004Z,9.23
2023-04-08T16:34:14.283Z,8.05
2023-04-08T16:36:42.365Z,8.68
2023-04-08T16:41:39.502Z,9.00
2023-04-08T16:44:07.689Z,9.80
2023-04-08T16:46:36.301Z,8.73
2023-04-08T16:49:05.995Z,9.70
2023-04-08T16:51:34.459Z,8.75
2023-04-08T16:54:02.520Z,9.82
2023-04-08T16:56:30.642Z,9.13
2023-04-08T16:58:58.752Z,8.57
2023-04-08T17:01:27.188Z,8.20
2023-04-08T17:03:56.169Z,8.02
2023-04-08T17:06:27.258Z,7.07
2023-04-08T17:08:55.441Z,6.95
2023-04-08T17:11:23.668Z,6.40
2023-04-08T17:16:19.915Z,6.07
2023-04-08T17:21:15.933Z,7.10
2023-04-08T17:23:45.433Z,7.30
2023-04-08T17:26:13.821Z,8.15
2023-04-08T17:28:42.023Z,10.60
2023-04-08T17:31:10.674Z,17.30
2023-04-08T17:33:39.026Z,26.52
2023-04-08T17:38:35.760Z,22.10
2023-04-08T17:41:05.366Z,18.77
2023-04-08T17:43:33.427Z,25.80
2023-04-08T17:46:02.359Z,14.30
2023-04-08T17:48:30.488Z,9.75
2023-04-08T17:51:02.832Z,13.10
2023-04-08T17:53:31.010Z,16.98
2023-04-08T17:55:59.121Z,11.68
2023-04-08T17:58:28.447Z,13.60
2023-04-08T18:00:56.601Z,10.00
2023-04-08T18:03:24.842Z,9.20
2023-04-08T18:08:23.284Z,9.40
2023-04-08T18:10:51.226Z,9.70
2023-04-08T18:13:19.331Z,9.75
2023-04-08T18:15:48.628Z,8.73
2023-04-08T18:18:20.146Z,9.05
2023-04-08T18:20:48.718Z,15.45
2023-04-08T18:23:16.942Z,19.95
2023-04-08T18:25:47.554Z,10.82
2023-04-08T18:28:15.736Z,10.52
2023-04-08T18:30:43.834Z,10.82
2023-04-08T18:33:13.267Z,10.88
2023-04-08T18:35:41.682Z,12.63
2023-04-08T18:38:10.069Z,10.48
2023-04-08T18:40:38.386Z,10.15
2023-04-08T18:43:06.486Z,11.52
2023-04-08T18:45:34.640Z,10.85
2023-04-08T18:48:02.687Z,10.65
2023-04-08T18:50:32.136Z,11.23
2023-04-08T18:53:00.298Z,9.65
2023-04-08T18:55:28.602Z,11.02
2023-04-08T18:57:56.694Z,10.88
2023-04-08T19:00:25.032Z,11.95
2023-04-08T19:02:53.023Z,11.07
2023-04-08T19:05:21.340Z,10.75
2023-04-08T19:07:50.924Z,11.18
2023-04-08T19:10:19.301Z,9.88
2023-04-08T19:12:47.692Z,11.80
2023-04-08T19:17:43.869Z,10.68
2023-04-08T19:20:12.737Z,12.23
2023-04-08T19:22:40.911Z,19.00
2023-04-08T19:25:12.700Z,19.13
2023-04-08T19:27:40.961Z,14.80
2023-04-08T19:30:09.983Z,13.38
2023-04-08T19:32:38.706Z,14.07
2023-04-08T19:35:08.048Z,14.25
2023-04-08T19:37:36.014Z,14.15
2023-04-08T19:40:04.570Z,12.88
2023-04-08T19:42:34.188Z,14.30
2023-04-08T19:45:02.376Z,15.25
2023-04-08T19:47:30.703Z,15.43
2023-04-08T19:49:59.804Z,14.68
2023-04-08T19:52:28.172Z,14.85
2023-04-08T19:54:56.293Z,15.10
2023-04-08T19:57:24.389Z,16.02
2023-04-08T19:59:55.725Z,15.05
2023-04-08T20:02:25.048Z,16.08
2023-04-08T20:04:53.392Z,17.75
2023-04-08T20:07:21.376Z,16.20
2023-04-08T20:09:49.403Z,17.77
2023-04-08T20:12:17.491Z,16.30
2023-04-08T20:14:45.767Z,17.40
2023-04-08T20:17:15.501Z,15.75
2023-04-08T20:19:43.717Z,16.98
2023-04-08T20:22:11.866Z,18.00
2023-04-08T20:24:39.748Z,16.48
2023-04-08T20:27:08.252Z,18.67
2023-04-08T20:29:36.375Z,17.33
2023-04-08T20:32:04.313Z,16.00
2023-04-08T20:34:33.880Z,19.38
2023-04-08T20:37:03.029Z,17.50
2023-04-08T20:39:31.901Z,17.90
2023-04-08T20:42:00.094Z,17.13
2023-04-08T20:44:28.264Z,18.83
2023-04-08T20:46:56.564Z,18.33
2023-04-08T20:49:24.883Z,21.33
2023-04-08T20:51:54.479Z,18.35
2023-04-08T20:54:22.724Z,18.38
2023-04-08T20:56:50.847Z,17.17
2023-04-08T20:59:18.960Z,16.40
2023-04-08T21:01:47.181Z,21.13
2023-04-08T21:04:16.730Z,16.92
2023-04-08T21:06:44.805Z,17.55
2023-04-08T21:09:14.976Z,16.52
2023-04-08T21:11:43.192Z,17.17
2023-04-08T21:14:11.101Z,16.17
2023-04-08T21:16:39.329Z,16.17
2023-04-08T21:19:07.403Z,16.25
2023-04-08T21:21:35.491Z,17.80
2023-04-08T21:24:03.858Z,17.73
2023-04-08T21:29:01.476Z,16.30
2023-04-08T21:31:30.419Z,16.92
2023-04-08T21:33:58.712Z,17.27
2023-04-08T21:36:27.916Z,18.23
2023-04-08T21:38:57.037Z,19.55
2023-04-08T21:41:25.398Z,18.67
2023-04-08T21:43:54.946Z,18.10
2023-04-08T21:46:23.388Z,17.33
2023-04-08T21:51:19.992Z,16.35
2023-04-08T21:53:47.988Z,16.50
2023-04-08T21:56:17.407Z,16.35
2023-04-08T21:58:45.785Z,17.48
2023-04-08T22:01:15.215Z,16.75
2023-04-08T22:03:44.886Z,17.92
2023-04-08T22:08:51.328Z,17.05
2023-04-08T22:11:19.739Z,17.83
2023-04-08T22:13:47.805Z,17.45
2023-04-08T22:16:17.270Z,18.65
2023-04-08T22:18:45.685Z,18.17
2023-04-08T22:21:14.149Z,17.13
2023-04-08T22:23:42.420Z,17.88
2023-04-08T22:26:10.509Z,17.98
2023-04-08T22:28:38.557Z,16.83
2023-04-08T22:31:10.495Z,17.33
2023-04-08T22:33:41.634Z,17.02
2023-04-08T22:36:09.984Z,16.90
2023-04-08T22:38:37.939Z,18.88
2023-04-08T22:41:06.091Z,17.63
2023-04-08T22:43:34.060Z,16.60
2023-04-08T22:46:02.165Z,15.98
2023-04-08T22:48:30.301Z,17.02
2023-04-08T22:50:59.709Z,16.55
2023-04-08T22:53:28.148Z,16.55
2023-04-08T22:55:56.294Z,15.90
2023-04-08T22:58:24.330Z,16.48
2023-04-08T23:00:52.364Z,16.17
2023-04-08T23:03:20.578Z,17.13
2023-04-08T23:05:48.866Z,16.58
2023-04-08T23:08:18.153Z,16.27
2023-04-08T23:10:46.522Z,15.48
2023-04-08T23:13:15.063Z,16.63
2023-04-08T23:15:43.221Z,17.25
2023-04-08T23:18:11.369Z,16.40
2023-04-08T23:20:39.336Z,16.05
2023-04-08T23:23:07.426Z,15.80
2023-04-08T23:25:37.524Z,16.45
2023-04-08T23:28:05.891Z,16.10
2023-04-08T23:30:34.045Z,15.77
2023-04-08T23:33:01.962Z,13.93
2023-04-08T23:35:30.060Z,14.18
2023-04-08T23:37:57.966Z,14.80
2023-04-08T23:40:26.096Z,14.48
2023-04-08T23:42:55.587Z,14.70
2023-04-08T23:45:23.655Z,13.82
2023-04-08T23:47:51.974Z,14.82
2023-04-08T23:50:22.988Z,13.35
2023-04-08T23:52:50.962Z,13.40
2023-04-08T23:55:19.076Z,14.13
2023-04-08T23:57:49.214Z,14.20
